Mineral Springs, North Carolina
Current Conditions -  °F | °C
As of 4:53 PM on Wednesday 22 Oct 2014 (Local Time) from KEQY Reporting Station
Scattered Clouds Scattered Clouds  
Wind Chill: 66°   Ceiling: Unl
Heat Index: 66°   Visibility: 10mi
Dew Point: 40°   Wind: 9mph
Humidity: 38%   Direction: 340°NNW
Pressure: 30.02"   Gusts: NA
Location:  34.94°N, 80.67°W
Report Text: KEQY 222053Z AUTO 34008KT 10SM SCT060 19/04 A3002 RMK AO2 SLP173 T01890044 56004
Loading
Personal Weather Stations






























Interactive Weather Map
Tropical Storm Tracking
New forecast layout! Learn more

10-Day Weather Forecast

Advertisements
Track Severe Weather on mobile